sensor_id;sensor_type;location;lat;lon;timestamp;P1;durP1;ratioP1;P2;durP2;ratioP2
15699;SDS011;7950;42.744;23.174;2023-05-02T00:01:32;5.27;;;4.77;;
15699;SDS011;7950;42.744;23.174;2023-05-02T00:04:01;6.00;;;5.20;;
15699;SDS011;7950;42.744;23.174;2023-05-02T00:06:32;5.50;;;4.97;;
15699;SDS011;7950;42.744;23.174;2023-05-02T00:09:00;5.07;;;4.43;;
15699;SDS011;7950;42.744;23.174;2023-05-02T00:11:30;5.13;;;4.53;;
15699;SDS011;7950;42.744;23.174;2023-05-02T00:13:59;5.60;;;4.50;;
15699;SDS011;7950;42.744;23.174;2023-05-02T00:16:27;6.60;;;4.47;;
15699;SDS011;7950;42.744;23.174;2023-05-02T00:18:56;5.70;;;4.90;;
15699;SDS011;7950;42.744;23.174;2023-05-02T00:21:24;8.47;;;5.57;;
15699;SDS011;7950;42.744;23.174;2023-05-02T00:23:56;6.00;;;5.40;;
15699;SDS011;7950;42.744;23.174;2023-05-02T00:26:24;6.43;;;5.23;;
15699;SDS011;7950;42.744;23.174;2023-05-02T00:28:54;5.77;;;4.50;;
15699;SDS011;7950;42.744;23.174;2023-05-02T00:31:22;6.00;;;5.10;;
15699;SDS011;7950;42.744;23.174;2023-05-02T00:33:51;6.03;;;5.43;;
15699;SDS011;7950;42.744;23.174;2023-05-02T00:39:14;6.27;;;5.53;;
15699;SDS011;7950;42.744;23.174;2023-05-02T00:41:42;9.30;;;5.43;;
15699;SDS011;7950;42.744;23.174;2023-05-02T00:44:11;6.60;;;5.27;;
15699;SDS011;7950;42.744;23.174;2023-05-02T00:46:40;5.93;;;5.33;;
15699;SDS011;7950;42.744;23.174;2023-05-02T00:49:08;7.50;;;5.57;;
15699;SDS011;7950;42.744;23.174;2023-05-02T00:51:37;5.97;;;5.37;;
15699;SDS011;7950;42.744;23.174;2023-05-02T00:54:06;6.93;;;5.30;;
15699;SDS011;7950;42.744;23.174;2023-05-02T00:56:36;7.00;;;5.80;;
15699;SDS011;7950;42.744;23.174;2023-05-02T00:59:05;6.27;;;5.37;;
15699;SDS011;7950;42.744;23.174;2023-05-02T01:01:39;6.00;;;4.90;;
15699;SDS011;7950;42.744;23.174;2023-05-02T01:04:27;6.47;;;5.87;;
15699;SDS011;7950;42.744;23.174;2023-05-02T01:07:13;5.77;;;5.27;;
15699;SDS011;7950;42.744;23.174;2023-05-02T01:10:08;6.47;;;5.20;;
15699;SDS011;7950;42.744;23.174;2023-05-02T01:12:53;6.43;;;5.30;;
15699;SDS011;7950;42.744;23.174;2023-05-02T01:15:30;6.63;;;5.63;;
15699;SDS011;7950;42.744;23.174;2023-05-02T01:18:04;6.70;;;5.93;;
15699;SDS011;7950;42.744;23.174;2023-05-02T01:20:38;7.37;;;5.73;;
15699;SDS011;7950;42.744;23.174;2023-05-02T01:23:13;7.50;;;5.90;;
15699;SDS011;7950;42.744;23.174;2023-05-02T01:25:55;6.40;;;5.80;;
15699;SDS011;7950;42.744;23.174;2023-05-02T01:28:56;6.57;;;5.07;;
15699;SDS011;7950;42.744;23.174;2023-05-02T01:31:28;5.67;;;4.90;;
15699;SDS011;7950;42.744;23.174;2023-05-02T01:34:03;6.03;;;5.20;;
15699;SDS011;7950;42.744;23.174;2023-05-02T01:36:37;7.13;;;5.40;;
15699;SDS011;7950;42.744;23.174;2023-05-02T01:39:12;7.00;;;5.80;;
15699;SDS011;7950;42.744;23.174;2023-05-02T01:41:46;6.20;;;5.30;;
15699;SDS011;7950;42.744;23.174;2023-05-02T01:44:19;6.87;;;5.50;;
15699;SDS011;7950;42.744;23.174;2023-05-02T01:46:50;7.40;;;6.10;;
15699;SDS011;7950;42.744;23.174;2023-05-02T01:49:22;7.47;;;6.20;;
15699;SDS011;7950;42.744;23.174;2023-05-02T01:51:53;6.57;;;5.80;;
15699;SDS011;7950;42.744;23.174;2023-05-02T01:54:23;5.90;;;5.30;;
15699;SDS011;7950;42.744;23.174;2023-05-02T01:56:53;6.33;;;5.27;;
15699;SDS011;7950;42.744;23.174;2023-05-02T01:59:25;5.90;;;5.30;;
15699;SDS011;7950;42.744;23.174;2023-05-02T02:02:02;6.77;;;5.43;;
15699;SDS011;7950;42.744;23.174;2023-05-02T02:04:33;6.83;;;5.77;;
15699;SDS011;7950;42.744;23.174;2023-05-02T02:07:06;9.20;;;6.00;;
15699;SDS011;7950;42.744;23.174;2023-05-02T02:09:39;6.43;;;5.70;;
15699;SDS011;7950;42.744;23.174;2023-05-02T02:12:10;5.90;;;5.30;;
15699;SDS011;7950;42.744;23.174;2023-05-02T02:14:47;6.50;;;5.90;;
15699;SDS011;7950;42.744;23.174;2023-05-02T02:17:24;5.97;;;5.37;;
15699;SDS011;7950;42.744;23.174;2023-05-02T02:20:04;5.87;;;5.37;;
15699;SDS011;7950;42.744;23.174;2023-05-02T02:22:36;6.30;;;5.70;;
15699;SDS011;7950;42.744;23.174;2023-05-02T02:25:09;7.80;;;6.27;;
15699;SDS011;7950;42.744;23.174;2023-05-02T02:27:43;7.67;;;6.20;;
15699;SDS011;7950;42.744;23.174;2023-05-02T02:30:13;7.17;;;6.30;;
15699;SDS011;7950;42.744;23.174;2023-05-02T02:32:42;6.93;;;5.57;;
15699;SDS011;7950;42.744;23.174;2023-05-02T02:35:10;8.30;;;6.67;;
15699;SDS011;7950;42.744;23.174;2023-05-02T02:37:40;6.53;;;5.87;;
15699;SDS011;7950;42.744;23.174;2023-05-02T02:40:16;6.77;;;5.80;;
15699;SDS011;7950;42.744;23.174;2023-05-02T02:42:59;7.07;;;6.20;;
15699;SDS011;7950;42.744;23.174;2023-05-02T02:45:47;7.87;;;6.30;;
15699;SDS011;7950;42.744;23.174;2023-05-02T02:48:31;6.87;;;5.87;;
15699;SDS011;7950;42.744;23.174;2023-05-02T02:51:06;6.30;;;5.70;;
15699;SDS011;7950;42.744;23.174;2023-05-02T02:53:46;6.73;;;6.03;;
15699;SDS011;7950;42.744;23.174;2023-05-02T02:56:36;6.67;;;5.57;;
15699;SDS011;7950;42.744;23.174;2023-05-02T02:59:11;6.80;;;6.10;;
15699;SDS011;7950;42.744;23.174;2023-05-02T03:01:47;8.30;;;6.47;;
15699;SDS011;7950;42.744;23.174;2023-05-02T03:04:29;6.70;;;6.10;;
15699;SDS011;7950;42.744;23.174;2023-05-02T03:07:00;7.70;;;6.60;;
15699;SDS011;7950;42.744;23.174;2023-05-02T03:09:39;8.97;;;6.00;;
15699;SDS011;7950;42.744;23.174;2023-05-02T03:12:08;7.57;;;6.87;;
15699;SDS011;7950;42.744;23.174;2023-05-02T03:14:38;7.30;;;6.43;;
15699;SDS011;7950;42.744;23.174;2023-05-02T03:17:09;9.40;;;6.63;;
15699;SDS011;7950;42.744;23.174;2023-05-02T03:19:37;6.73;;;6.03;;
15699;SDS011;7950;42.744;23.174;2023-05-02T03:22:06;7.53;;;6.27;;
15699;SDS011;7950;42.744;23.174;2023-05-02T03:24:35;10.37;;;6.93;;
15699;SDS011;7950;42.744;23.174;2023-05-02T03:27:03;8.07;;;6.67;;
15699;SDS011;7950;42.744;23.174;2023-05-02T03:29:32;8.57;;;6.97;;
15699;SDS011;7950;42.744;23.174;2023-05-02T03:32:00;12.13;;;9.53;;
15699;SDS011;7950;42.744;23.174;2023-05-02T03:34:30;9.43;;;7.27;;
15699;SDS011;7950;42.744;23.174;2023-05-02T03:36:59;8.20;;;6.47;;
15699;SDS011;7950;42.744;23.174;2023-05-02T03:39:27;8.20;;;6.80;;
15699;SDS011;7950;42.744;23.174;2023-05-02T03:41:56;7.60;;;6.70;;
15699;SDS011;7950;42.744;23.174;2023-05-02T03:44:25;8.37;;;6.70;;
15699;SDS011;7950;42.744;23.174;2023-05-02T03:46:53;8.33;;;6.73;;
15699;SDS011;7950;42.744;23.174;2023-05-02T03:49:22;7.63;;;6.83;;
15699;SDS011;7950;42.744;23.174;2023-05-02T03:51:52;7.37;;;6.67;;
15699;SDS011;7950;42.744;23.174;2023-05-02T03:54:20;8.53;;;6.20;;
15699;SDS011;7950;42.744;23.174;2023-05-02T03:56:49;8.57;;;6.43;;
15699;SDS011;7950;42.744;23.174;2023-05-02T03:59:18;6.87;;;6.17;;
15699;SDS011;7950;42.744;23.174;2023-05-02T04:01:47;7.60;;;6.57;;
15699;SDS011;7950;42.744;23.174;2023-05-02T04:04:16;6.90;;;6.20;;
15699;SDS011;7950;42.744;23.174;2023-05-02T04:06:45;7.57;;;6.60;;
15699;SDS011;7950;42.744;23.174;2023-05-02T04:09:15;8.17;;;6.53;;
15699;SDS011;7950;42.744;23.174;2023-05-02T04:11:44;6.63;;;5.97;;
15699;SDS011;7950;42.744;23.174;2023-05-02T04:14:13;6.80;;;6.10;;
15699;SDS011;7950;42.744;23.174;2023-05-02T04:16:41;7.73;;;6.90;;
15699;SDS011;7950;42.744;23.174;2023-05-02T04:19:15;6.17;;;5.57;;
15699;SDS011;7950;42.744;23.174;2023-05-02T04:21:44;6.57;;;5.57;;
15699;SDS011;7950;42.744;23.174;2023-05-02T04:24:14;7.83;;;6.80;;
15699;SDS011;7950;42.744;23.174;2023-05-02T04:26:44;6.93;;;6.23;;
15699;SDS011;7950;42.744;23.174;2023-05-02T04:29:12;8.87;;;7.37;;
15699;SDS011;7950;42.744;23.174;2023-05-02T04:31:41;7.77;;;6.87;;
15699;SDS011;7950;42.744;23.174;2023-05-02T04:34:10;8.53;;;7.63;;
15699;SDS011;7950;42.744;23.174;2023-05-02T04:36:38;7.40;;;6.33;;
15699;SDS011;7950;42.744;23.174;2023-05-02T04:39:07;7.47;;;6.67;;
15699;SDS011;7950;42.744;23.174;2023-05-02T04:41:37;8.10;;;7.10;;
15699;SDS011;7950;42.744;23.174;2023-05-02T04:44:06;7.60;;;6.60;;
15699;SDS011;7950;42.744;23.174;2023-05-02T04:46:34;7.47;;;6.40;;
15699;SDS011;7950;42.744;23.174;2023-05-02T04:49:03;8.17;;;6.93;;
15699;SDS011;7950;42.744;23.174;2023-05-02T04:51:31;7.07;;;6.00;;
15699;SDS011;7950;42.744;23.174;2023-05-02T04:54:00;7.70;;;6.60;;
15699;SDS011;7950;42.744;23.174;2023-05-02T04:56:28;7.10;;;6.30;;
15699;SDS011;7950;42.744;23.174;2023-05-02T04:58:58;8.93;;;7.10;;
15699;SDS011;7950;42.744;23.174;2023-05-02T05:01:27;7.73;;;7.03;;
15699;SDS011;7950;42.744;23.174;2023-05-02T05:03:56;8.07;;;7.27;;
15699;SDS011;7950;42.744;23.174;2023-05-02T05:06:24;8.17;;;6.87;;
15699;SDS011;7950;42.744;23.174;2023-05-02T05:11:50;6.80;;;6.10;;
15699;SDS011;7950;42.744;23.174;2023-05-02T05:14:20;7.87;;;6.73;;
15699;SDS011;7950;42.744;23.174;2023-05-02T05:16:49;7.10;;;6.40;;
15699;SDS011;7950;42.744;23.174;2023-05-02T05:19:18;7.63;;;6.83;;
15699;SDS011;7950;42.744;23.174;2023-05-02T05:24:40;6.83;;;6.23;;
15699;SDS011;7950;42.744;23.174;2023-05-02T05:27:09;9.70;;;7.23;;
15699;SDS011;7950;42.744;23.174;2023-05-02T05:29:39;8.63;;;7.73;;
15699;SDS011;7950;42.744;23.174;2023-05-02T05:35:13;7.53;;;6.67;;
15699;SDS011;7950;42.744;23.174;2023-05-02T05:37:41;9.93;;;7.90;;
15699;SDS011;7950;42.744;23.174;2023-05-02T05:40:10;11.97;;;7.70;;
15699;SDS011;7950;42.744;23.174;2023-05-02T05:42:39;7.97;;;6.80;;
15699;SDS011;7950;42.744;23.174;2023-05-02T05:45:14;7.87;;;7.13;;
15699;SDS011;7950;42.744;23.174;2023-05-02T05:47:45;8.07;;;6.33;;
15699;SDS011;7950;42.744;23.174;2023-05-02T05:50:13;9.03;;;6.90;;
15699;SDS011;7950;42.744;23.174;2023-05-02T05:52:42;6.90;;;6.23;;
15699;SDS011;7950;42.744;23.174;2023-05-02T05:58:07;6.33;;;5.63;;
15699;SDS011;7950;42.744;23.174;2023-05-02T06:00:39;7.73;;;5.50;;
15699;SDS011;7950;42.744;23.174;2023-05-02T06:03:08;5.93;;;5.20;;
15699;SDS011;7950;42.744;23.174;2023-05-02T06:05:37;5.67;;;5.13;;
15699;SDS011;7950;42.744;23.174;2023-05-02T06:08:06;7.87;;;4.63;;
15699;SDS011;7950;42.744;23.174;2023-05-02T06:10:34;6.07;;;4.93;;
15699;SDS011;7950;42.744;23.174;2023-05-02T06:13:03;7.80;;;5.13;;
15699;SDS011;7950;42.744;23.174;2023-05-02T06:15:32;4.90;;;4.50;;
15699;SDS011;7950;42.744;23.174;2023-05-02T06:18:02;6.10;;;5.27;;
15699;SDS011;7950;42.744;23.174;2023-05-02T06:20:31;6.83;;;4.80;;
15699;SDS011;7950;42.744;23.174;2023-05-02T06:23:01;5.10;;;4.60;;
15699;SDS011;7950;42.744;23.174;2023-05-02T06:25:30;6.27;;;4.60;;
15699;SDS011;7950;42.744;23.174;2023-05-02T06:27:59;10.43;;;5.03;;
15699;SDS011;7950;42.744;23.174;2023-05-02T06:30:27;5.00;;;4.57;;
15699;SDS011;7950;42.744;23.174;2023-05-02T06:32:56;5.40;;;4.60;;
15699;SDS011;7950;42.744;23.174;2023-05-02T06:35:26;6.60;;;5.23;;
15699;SDS011;7950;42.744;23.174;2023-05-02T06:38:04;9.27;;;4.90;;
15699;SDS011;7950;42.744;23.174;2023-05-02T06:40:33;5.83;;;4.57;;
15699;SDS011;7950;42.744;23.174;2023-05-02T06:43:02;7.30;;;4.60;;
15699;SDS011;7950;42.744;23.174;2023-05-02T06:45:31;5.40;;;4.47;;
15699;SDS011;7950;42.744;23.174;2023-05-02T06:47:59;6.27;;;4.53;;
15699;SDS011;7950;42.744;23.174;2023-05-02T06:50:29;4.57;;;4.17;;
15699;SDS011;7950;42.744;23.174;2023-05-02T06:52:58;4.83;;;4.40;;
15699;SDS011;7950;42.744;23.174;2023-05-02T06:55:26;6.23;;;4.17;;
15699;SDS011;7950;42.744;23.174;2023-05-02T06:57:55;8.10;;;4.73;;
15699;SDS011;7950;42.744;23.174;2023-05-02T07:00:24;4.13;;;3.83;;
15699;SDS011;7950;42.744;23.174;2023-05-02T07:02:52;5.27;;;4.43;;
15699;SDS011;7950;42.744;23.174;2023-05-02T07:05:22;5.20;;;3.97;;
15699;SDS011;7950;42.744;23.174;2023-05-02T07:07:52;5.00;;;4.37;;
15699;SDS011;7950;42.744;23.174;2023-05-02T07:10:20;4.77;;;4.20;;
15699;SDS011;7950;42.744;23.174;2023-05-02T07:12:49;4.67;;;4.20;;
15699;SDS011;7950;42.744;23.174;2023-05-02T07:15:17;7.00;;;4.37;;
15699;SDS011;7950;42.744;23.174;2023-05-02T07:17:46;4.57;;;4.17;;
15699;SDS011;7950;42.744;23.174;2023-05-02T07:20:15;5.67;;;4.30;;
15699;SDS011;7950;42.744;23.174;2023-05-02T07:22:43;4.47;;;3.90;;
15699;SDS011;7950;42.744;23.174;2023-05-02T07:25:13;4.50;;;4.10;;
15699;SDS011;7950;42.744;23.174;2023-05-02T07:27:42;6.93;;;4.10;;
15699;SDS011;7950;42.744;23.174;2023-05-02T07:30:11;7.43;;;4.03;;
15699;SDS011;7950;42.744;23.174;2023-05-02T07:32:40;5.53;;;3.87;;
15699;SDS011;7950;42.744;23.174;2023-05-02T07:35:08;4.57;;;3.87;;
15699;SDS011;7950;42.744;23.174;2023-05-02T07:37:37;5.13;;;3.83;;
15699;SDS011;7950;42.744;23.174;2023-05-02T07:40:06;5.07;;;4.17;;
15699;SDS011;7950;42.744;23.174;2023-05-02T07:42:37;3.83;;;3.50;;
15699;SDS011;7950;42.744;23.174;2023-05-02T07:45:07;4.00;;;3.70;;
15699;SDS011;7950;42.744;23.174;2023-05-02T07:47:36;4.77;;;3.77;;
15699;SDS011;7950;42.744;23.174;2023-05-02T07:50:05;5.47;;;3.80;;
15699;SDS011;7950;42.744;23.174;2023-05-02T07:52:35;5.07;;;3.67;;
15699;SDS011;7950;42.744;23.174;2023-05-02T07:55:03;4.10;;;3.40;;
15699;SDS011;7950;42.744;23.174;2023-05-02T07:57:33;4.97;;;3.90;;
15699;SDS011;7950;42.744;23.174;2023-05-02T08:00:04;4.03;;;3.63;;
15699;SDS011;7950;42.744;23.174;2023-05-02T08:02:35;5.67;;;3.97;;
15699;SDS011;7950;42.744;23.174;2023-05-02T08:05:04;6.83;;;4.00;;
15699;SDS011;7950;42.744;23.174;2023-05-02T08:07:34;3.73;;;3.40;;
15699;SDS011;7950;42.744;23.174;2023-05-02T08:10:03;3.97;;;3.67;;
15699;SDS011;7950;42.744;23.174;2023-05-02T08:12:36;5.03;;;3.40;;
15699;SDS011;7950;42.744;23.174;2023-05-02T08:15:09;4.73;;;3.80;;
15699;SDS011;7950;42.744;23.174;2023-05-02T08:17:39;5.50;;;3.60;;
15699;SDS011;7950;42.744;23.174;2023-05-02T08:20:08;5.43;;;4.10;;
15699;SDS011;7950;42.744;23.174;2023-05-02T08:22:37;5.07;;;3.80;;
15699;SDS011;7950;42.744;23.174;2023-05-02T08:25:06;6.30;;;4.03;;
15699;SDS011;7950;42.744;23.174;2023-05-02T08:27:35;5.67;;;3.57;;
15699;SDS011;7950;42.744;23.174;2023-05-02T08:30:04;5.30;;;3.70;;
15699;SDS011;7950;42.744;23.174;2023-05-02T08:32:35;5.97;;;3.67;;
15699;SDS011;7950;42.744;23.174;2023-05-02T08:35:05;4.73;;;3.20;;
15699;SDS011;7950;42.744;23.174;2023-05-02T08:37:34;7.27;;;3.20;;
15699;SDS011;7950;42.744;23.174;2023-05-02T08:40:03;4.00;;;3.70;;
15699;SDS011;7950;42.744;23.174;2023-05-02T08:42:37;6.03;;;3.27;;
15699;SDS011;7950;42.744;23.174;2023-05-02T08:45:11;3.40;;;3.10;;
15699;SDS011;7950;42.744;23.174;2023-05-02T08:47:42;4.17;;;3.53;;
15699;SDS011;7950;42.744;23.174;2023-05-02T08:50:14;4.37;;;3.50;;
15699;SDS011;7950;42.744;23.174;2023-05-02T08:52:44;3.63;;;3.33;;
15699;SDS011;7950;42.744;23.174;2023-05-02T08:55:17;4.43;;;3.37;;
15699;SDS011;7950;42.744;23.174;2023-05-02T08:57:53;4.13;;;3.80;;
15699;SDS011;7950;42.744;23.174;2023-05-02T09:00:29;6.23;;;3.70;;
15699;SDS011;7950;42.744;23.174;2023-05-02T09:03:03;6.00;;;3.80;;
15699;SDS011;7950;42.744;23.174;2023-05-02T09:08:45;6.77;;;4.07;;
15699;SDS011;7950;42.744;23.174;2023-05-02T09:11:15;4.03;;;3.57;;
15699;SDS011;7950;42.744;23.174;2023-05-02T09:13:45;3.83;;;3.13;;
15699;SDS011;7950;42.744;23.174;2023-05-02T09:16:19;3.90;;;3.33;;
15699;SDS011;7950;42.744;23.174;2023-05-02T09:18:51;4.17;;;3.23;;
15699;SDS011;7950;42.744;23.174;2023-05-02T09:21:34;3.37;;;3.07;;
15699;SDS011;7950;42.744;23.174;2023-05-02T09:24:13;5.60;;;3.13;;
15699;SDS011;7950;42.744;23.174;2023-05-02T09:26:56;5.70;;;3.40;;
15699;SDS011;7950;42.744;23.174;2023-05-02T09:29:26;5.27;;;3.40;;
15699;SDS011;7950;42.744;23.174;2023-05-02T09:32:03;8.83;;;3.80;;
15699;SDS011;7950;42.744;23.174;2023-05-02T09:34:33;3.37;;;3.07;;
15699;SDS011;7950;42.744;23.174;2023-05-02T09:37:03;3.90;;;3.57;;
15699;SDS011;7950;42.744;23.174;2023-05-02T09:39:31;3.50;;;3.20;;
15699;SDS011;7950;42.744;23.174;2023-05-02T09:42:00;4.73;;;3.07;;
15699;SDS011;7950;42.744;23.174;2023-05-02T09:44:35;4.17;;;3.10;;
15699;SDS011;7950;42.744;23.174;2023-05-02T09:47:06;3.90;;;3.10;;
15699;SDS011;7950;42.744;23.174;2023-05-02T09:49:38;4.63;;;3.20;;
15699;SDS011;7950;42.744;23.174;2023-05-02T09:52:10;3.53;;;3.23;;
15699;SDS011;7950;42.744;23.174;2023-05-02T09:54:40;7.90;;;3.07;;
15699;SDS011;7950;42.744;23.174;2023-05-02T09:57:09;3.20;;;2.97;;
15699;SDS011;7950;42.744;23.174;2023-05-02T09:59:37;3.00;;;2.70;;
15699;SDS011;7950;42.744;23.174;2023-05-02T10:02:08;3.13;;;2.80;;
15699;SDS011;7950;42.744;23.174;2023-05-02T10:04:38;2.87;;;2.67;;
15699;SDS011;7950;42.744;23.174;2023-05-02T10:07:08;3.97;;;3.67;;
15699;SDS011;7950;42.744;23.174;2023-05-02T10:09:40;5.70;;;3.30;;
15699;SDS011;7950;42.744;23.174;2023-05-02T10:12:13;5.50;;;2.80;;
15699;SDS011;7950;42.744;23.174;2023-05-02T10:14:44;3.83;;;2.93;;
15699;SDS011;7950;42.744;23.174;2023-05-02T10:17:21;3.53;;;3.20;;
15699;SDS011;7950;42.744;23.174;2023-05-02T10:19:59;3.93;;;3.17;;
15699;SDS011;7950;42.744;23.174;2023-05-02T10:22:31;4.23;;;3.20;;
15699;SDS011;7950;42.744;23.174;2023-05-02T10:25:01;4.70;;;3.10;;
15699;SDS011;7950;42.744;23.174;2023-05-02T10:27:31;4.23;;;2.90;;
15699;SDS011;7950;42.744;23.174;2023-05-02T10:30:00;5.77;;;4.13;;
15699;SDS011;7950;42.744;23.174;2023-05-02T10:32:31;3.47;;;3.10;;
15699;SDS011;7950;42.744;23.174;2023-05-02T10:35:01;3.93;;;2.90;;
15699;SDS011;7950;42.744;23.174;2023-05-02T10:40:53;4.40;;;3.10;;
15699;SDS011;7950;42.744;23.174;2023-05-02T10:43:26;3.10;;;2.80;;
15699;SDS011;7950;42.744;23.174;2023-05-02T10:46:00;3.43;;;2.77;;
15699;SDS011;7950;42.744;23.174;2023-05-02T10:48:30;4.17;;;3.10;;
15699;SDS011;7950;42.744;23.174;2023-05-02T10:51:00;3.10;;;2.70;;
15699;SDS011;7950;42.744;23.174;2023-05-02T10:53:30;3.07;;;2.87;;
15699;SDS011;7950;42.744;23.174;2023-05-02T10:56:10;3.20;;;2.90;;
15699;SDS011;7950;42.744;23.174;2023-05-02T10:58:44;3.73;;;2.80;;
15699;SDS011;7950;42.744;23.174;2023-05-02T11:01:33;6.80;;;2.73;;
15699;SDS011;7950;42.744;23.174;2023-05-02T11:04:05;2.70;;;2.50;;
15699;SDS011;7950;42.744;23.174;2023-05-02T11:10:23;6.40;;;2.47;;
15699;SDS011;7950;42.744;23.174;2023-05-02T11:12:56;3.53;;;2.60;;
15699;SDS011;7950;42.744;23.174;2023-05-02T11:18:23;5.30;;;2.80;;
15699;SDS011;7950;42.744;23.174;2023-05-02T11:20:53;3.00;;;2.60;;
15699;SDS011;7950;42.744;23.174;2023-05-02T11:30:06;2.97;;;2.47;;
15699;SDS011;7950;42.744;23.174;2023-05-02T11:35:46;4.47;;;2.67;;
15699;SDS011;7950;42.744;23.174;2023-05-02T11:38:18;2.60;;;2.40;;
15699;SDS011;7950;42.744;23.174;2023-05-02T11:41:00;2.33;;;2.20;;
15699;SDS011;7950;42.744;23.174;2023-05-02T11:43:30;4.23;;;2.70;;
15699;SDS011;7950;42.744;23.174;2023-05-02T11:45:59;2.43;;;2.10;;
15699;SDS011;7950;42.744;23.174;2023-05-02T11:48:29;4.07;;;2.50;;
15699;SDS011;7950;42.744;23.174;2023-05-02T11:50:58;3.73;;;2.70;;
15699;SDS011;7950;42.744;23.174;2023-05-02T11:53:32;2.70;;;2.50;;
15699;SDS011;7950;42.744;23.174;2023-05-02T11:56:06;3.67;;;2.50;;
15699;SDS011;7950;42.744;23.174;2023-05-02T11:58:35;3.83;;;2.50;;
15699;SDS011;7950;42.744;23.174;2023-05-02T12:01:10;2.50;;;2.30;;
15699;SDS011;7950;42.744;23.174;2023-05-02T12:03:40;3.37;;;2.57;;
15699;SDS011;7950;42.744;23.174;2023-05-02T12:06:10;4.20;;;2.27;;
15699;SDS011;7950;42.744;23.174;2023-05-02T12:08:42;7.17;;;2.63;;
15699;SDS011;7950;42.744;23.174;2023-05-02T12:11:12;3.53;;;2.23;;
15699;SDS011;7950;42.744;23.174;2023-05-02T12:13:45;3.00;;;2.80;;
15699;SDS011;7950;42.744;23.174;2023-05-02T12:16:19;4.90;;;2.50;;
15699;SDS011;7950;42.744;23.174;2023-05-02T12:18:47;4.83;;;2.60;;
15699;SDS011;7950;42.744;23.174;2023-05-02T12:21:16;4.30;;;2.60;;
15699;SDS011;7950;42.744;23.174;2023-05-02T12:23:47;3.37;;;2.63;;
15699;SDS011;7950;42.744;23.174;2023-05-02T12:26:16;3.07;;;2.40;;
15699;SDS011;7950;42.744;23.174;2023-05-02T12:28:47;3.77;;;2.40;;
15699;SDS011;7950;42.744;23.174;2023-05-02T12:31:16;4.80;;;2.50;;
15699;SDS011;7950;42.744;23.174;2023-05-02T12:36:42;3.63;;;2.70;;
15699;SDS011;7950;42.744;23.174;2023-05-02T12:39:12;2.70;;;2.50;;
15699;SDS011;7950;42.744;23.174;2023-05-02T12:41:41;5.97;;;2.53;;
15699;SDS011;7950;42.744;23.174;2023-05-02T12:44:11;3.73;;;2.33;;
15699;SDS011;7950;42.744;23.174;2023-05-02T12:49:28;3.87;;;2.43;;
15699;SDS011;7950;42.744;23.174;2023-05-02T12:51:57;2.87;;;2.50;;
15699;SDS011;7950;42.744;23.174;2023-05-02T12:54:27;3.20;;;2.50;;
15699;SDS011;7950;42.744;23.174;2023-05-02T12:56:55;3.63;;;2.13;;
15699;SDS011;7950;42.744;23.174;2023-05-02T12:59:25;2.23;;;2.03;;
15699;SDS011;7950;42.744;23.174;2023-05-02T13:01:55;4.07;;;2.27;;
15699;SDS011;7950;42.744;23.174;2023-05-02T13:04:32;2.83;;;2.20;;
15699;SDS011;7950;42.744;23.174;2023-05-02T13:07:01;2.80;;;2.03;;
15699;SDS011;7950;42.744;23.174;2023-05-02T13:09:31;3.33;;;2.20;;
15699;SDS011;7950;42.744;23.174;2023-05-02T13:12:00;6.67;;;2.73;;
15699;SDS011;7950;42.744;23.174;2023-05-02T13:14:29;3.77;;;2.50;;
15699;SDS011;7950;42.744;23.174;2023-05-02T13:16:58;3.23;;;1.93;;
15699;SDS011;7950;42.744;23.174;2023-05-02T13:19:27;3.03;;;1.90;;
15699;SDS011;7950;42.744;23.174;2023-05-02T13:21:57;2.60;;;2.20;;
15699;SDS011;7950;42.744;23.174;2023-05-02T13:24:25;3.17;;;2.17;;
15699;SDS011;7950;42.744;23.174;2023-05-02T13:26:55;2.37;;;2.17;;
15699;SDS011;7950;42.744;23.174;2023-05-02T13:29:23;2.07;;;1.87;;
15699;SDS011;7950;42.744;23.174;2023-05-02T13:31:52;5.50;;;2.40;;
15699;SDS011;7950;42.744;23.174;2023-05-02T13:34:23;4.07;;;2.07;;
15699;SDS011;7950;42.744;23.174;2023-05-02T13:36:52;6.37;;;2.33;;
15699;SDS011;7950;42.744;23.174;2023-05-02T13:39:20;4.17;;;2.20;;
15699;SDS011;7950;42.744;23.174;2023-05-02T13:41:49;2.27;;;1.90;;
15699;SDS011;7950;42.744;23.174;2023-05-02T13:44:19;2.07;;;1.83;;
15699;SDS011;7950;42.744;23.174;2023-05-02T13:46:47;3.67;;;2.23;;
15699;SDS011;7950;42.744;23.174;2023-05-02T13:49:16;4.60;;;2.43;;
15699;SDS011;7950;42.744;23.174;2023-05-02T13:51:44;4.03;;;2.10;;
15699;SDS011;7950;42.744;23.174;2023-05-02T13:54:14;5.80;;;2.30;;
15699;SDS011;7950;42.744;23.174;2023-05-02T13:56:43;2.77;;;2.03;;
15699;SDS011;7950;42.744;23.174;2023-05-02T13:59:11;2.43;;;2.03;;
15699;SDS011;7950;42.744;23.174;2023-05-02T14:01:41;4.77;;;2.30;;
15699;SDS011;7950;42.744;23.174;2023-05-02T14:04:10;2.97;;;2.67;;
15699;SDS011;7950;42.744;23.174;2023-05-02T14:06:38;2.93;;;2.13;;
15699;SDS011;7950;42.744;23.174;2023-05-02T14:09:07;2.73;;;2.10;;
15699;SDS011;7950;42.744;23.174;2023-05-02T14:11:35;3.10;;;2.00;;
15699;SDS011;7950;42.744;23.174;2023-05-02T14:14:04;2.40;;;2.20;;
15699;SDS011;7950;42.744;23.174;2023-05-02T14:16:34;4.67;;;2.10;;
15699;SDS011;7950;42.744;23.174;2023-05-02T14:19:22;5.17;;;2.03;;
15699;SDS011;7950;42.744;23.174;2023-05-02T14:21:51;3.03;;;2.23;;
15699;SDS011;7950;42.744;23.174;2023-05-02T14:24:21;3.47;;;2.00;;
15699;SDS011;7950;42.744;23.174;2023-05-02T14:26:50;2.63;;;1.90;;
15699;SDS011;7950;42.744;23.174;2023-05-02T14:29:18;2.87;;;2.03;;
15699;SDS011;7950;42.744;23.174;2023-05-02T14:37:31;2.17;;;1.97;;
15699;SDS011;7950;42.744;23.174;2023-05-02T14:40:00;2.47;;;2.10;;
15699;SDS011;7950;42.744;23.174;2023-05-02T14:42:29;3.33;;;2.20;;
15699;SDS011;7950;42.744;23.174;2023-05-02T14:44:57;5.97;;;2.30;;
15699;SDS011;7950;42.744;23.174;2023-05-02T14:47:27;2.80;;;2.00;;
15699;SDS011;7950;42.744;23.174;2023-05-02T14:49:57;2.40;;;2.20;;
15699;SDS011;7950;42.744;23.174;2023-05-02T14:52:27;2.10;;;2.00;;
15699;SDS011;7950;42.744;23.174;2023-05-02T14:54:57;2.07;;;1.83;;
15699;SDS011;7950;42.744;23.174;2023-05-02T14:57:26;3.93;;;2.03;;
15699;SDS011;7950;42.744;23.174;2023-05-02T14:59:55;6.17;;;2.10;;
15699;SDS011;7950;42.744;23.174;2023-05-02T15:02:24;4.17;;;1.90;;
15699;SDS011;7950;42.744;23.174;2023-05-02T15:04:52;4.17;;;2.00;;
15699;SDS011;7950;42.744;23.174;2023-05-02T15:07:21;2.23;;;1.90;;
15699;SDS011;7950;42.744;23.174;2023-05-02T15:09:51;2.47;;;1.80;;
15699;SDS011;7950;42.744;23.174;2023-05-02T15:12:19;2.30;;;2.10;;
15699;SDS011;7950;42.744;23.174;2023-05-02T15:14:48;3.57;;;2.30;;
15699;SDS011;7950;42.744;23.174;2023-05-02T15:17:16;2.40;;;1.90;;
15699;SDS011;7950;42.744;23.174;2023-05-02T15:19:45;2.13;;;1.90;;
15699;SDS011;7950;42.744;23.174;2023-05-02T15:22:13;2.23;;;1.90;;
15699;SDS011;7950;42.744;23.174;2023-05-02T15:24:43;3.97;;;2.10;;
15699;SDS011;7950;42.744;23.174;2023-05-02T15:27:13;3.27;;;2.03;;
15699;SDS011;7950;42.744;23.174;2023-05-02T15:29:41;3.63;;;2.13;;
15699;SDS011;7950;42.744;23.174;2023-05-02T15:38:01;2.50;;;2.00;;
15699;SDS011;7950;42.744;23.174;2023-05-02T15:40:29;4.10;;;2.30;;
15699;SDS011;7950;42.744;23.174;2023-05-02T15:42:59;2.00;;;1.80;;
15699;SDS011;7950;42.744;23.174;2023-05-02T15:45:28;2.40;;;2.20;;
15699;SDS011;7950;42.744;23.174;2023-05-02T15:47:56;2.87;;;2.07;;
15699;SDS011;7950;42.744;23.174;2023-05-02T15:50:25;2.37;;;1.90;;
15699;SDS011;7950;42.744;23.174;2023-05-02T15:52:54;2.90;;;2.10;;
15699;SDS011;7950;42.744;23.174;2023-05-02T15:55:23;2.33;;;1.80;;
15699;SDS011;7950;42.744;23.174;2023-05-02T15:57:52;4.53;;;2.10;;
15699;SDS011;7950;42.744;23.174;2023-05-02T16:00:22;2.60;;;1.90;;
15699;SDS011;7950;42.744;23.174;2023-05-02T16:02:51;3.93;;;1.83;;
15699;SDS011;7950;42.744;23.174;2023-05-02T16:05:21;2.90;;;1.93;;